1885 NOT_NAMED (1885241N15141)


IBTrACS version v04r00. Visit IBTrACS website for data access.
Please direct all questions to the IBTrACS Q and A forum

Storm track - Intensity - Wind Radii - Intensity Data - Source Data - All data

Summary Information

Storm ID 1885241N15141
Start Aug 28 16Z
End Sep 4 16Z
ATCF IDs
Track status Best track data.

Storm track plot

Map of storm track

Intensity plots

No Intensity information for this storm


Radial wind information

No radial wind information for this storm


Position and Intensity Table

BASIN ISO_TIME_________ NATURE LAT LON
degrees north degrees east
WP 1885-08-28 16:00:00 NR 15.20 140.80
WP 18:00:00 NR 15.27 140.55
WP 21:00:00 NR 15.38 140.18
WP 1885-08-29 00:00:00 NR 15.48 139.83
WP 03:00:00 NR 15.57 139.50
WP 04:00:00 NR 15.60 139.40
WP 06:00:00 NR 15.65 139.21
WP 09:00:00 NR 15.72 138.95
WP 12:00:00 NR 15.79 138.71
WP 15:00:00 NR 15.87 138.48
WP 16:00:00 NR 15.90 138.40
WP 18:00:00 NR 15.97 138.23
WP 21:00:00 NR 16.09 137.98
WP 1885-08-30 00:00:00 NR 16.22 137.73
WP 03:00:00 NR 16.36 137.48
WP 04:00:00 NR 16.40 137.40
WP 06:00:00 NR 16.48 137.23
WP 09:00:00 NR 16.60 136.97
WP 12:00:00 NR 16.73 136.72
WP 15:00:00 NR 16.85 136.48
WP 16:00:00 NR 16.90 136.40
WP 18:00:00 NR 16.99 136.25
WP 21:00:00 NR 17.12 136.04
WP 1885-08-31 00:00:00 NR 17.27 135.85
WP 03:00:00 NR 17.44 135.66
WP 04:00:00 NR 17.50 135.60
WP 06:00:00 NR 17.64 135.48
WP 09:00:00 NR 17.86 135.29
WP 12:00:00 NR 18.09 135.12
WP 15:00:00 NR 18.32 134.95
WP 16:00:00 NR 18.40 134.90
WP 18:00:00 NR 18.53 134.80
WP 21:00:00 NR 18.73 134.66
WP 1885-09-01 00:00:00 NR 18.92 134.52
WP 03:00:00 NR 19.13 134.36
WP 04:00:00 NR 19.20 134.30
WP 06:00:00 NR 19.35 134.17
WP 09:00:00 NR 19.59 133.95
WP 12:00:00 NR 19.84 133.72
WP 15:00:00 NR 20.11 133.48
WP 16:00:00 NR 20.20 133.40
WP 18:00:00 NR 20.39 133.25
WP 21:00:00 NR 20.68 133.02
WP 1885-09-02 00:00:00 NR 20.99 132.80
WP 03:00:00 NR 21.30 132.57
WP 04:00:00 NR 21.40 132.50
WP 06:00:00 NR 21.59 132.35
WP 09:00:00 NR 21.87 132.12
WP 12:00:00 NR 22.17 131.89
WP 15:00:00 NR 22.49 131.67
WP 16:00:00 NR 22.60 131.60
WP 18:00:00 NR 22.86 131.46
WP 21:00:00 NR 23.27 131.25
WP 1885-09-03 00:00:00 NR 23.69 131.05
WP 03:00:00 NR 24.08 130.86
WP 04:00:00 NR 24.20 130.80
WP 06:00:00 NR 24.40 130.69
WP 09:00:00 NR 24.66 130.54
WP 12:00:00 NR 24.89 130.40
WP 15:00:00 NR 25.12 130.25
WP 16:00:00 NR 25.20 130.20
WP 18:00:00 NR 25.37 130.08
WP 21:00:00 NR 25.63 129.90
WP 1885-09-04 00:00:00 NR 25.90 129.72
WP 03:00:00 NR 26.20 129.55
WP 04:00:00 NR 26.30 129.50
WP 06:00:00 NR 26.51 129.40
WP 09:00:00 NR 26.86 129.27
WP 12:00:00 NR 27.21 129.15
WP 15:00:00 NR 27.58 129.04
WP 16:00:00 NR 27.70 129.00

Source Information

Agency Information
USA
TOKYO
CMA
HKO
NEWDELHI
REUNION
BOM
NADI
WELLINGTON
DS824
TD9636 cons_worldwide_trop_cyclone_18710101-19891231-003:Line=226
TD9635
NEUMANN
MLC

All available IBTrACS Data

SEASON BASIN SUBBASIN ISO_TIME_________ NATURE LAT LON DIST2LAND LANDFALL IFLAG USA SSHS TD9636 LAT TD9636 LON TD9636 STAGE STORM SPEED STORM DIR
Year degrees north degrees east km km 1 degrees north degrees east kts degrees
1885 WP MM 1885-08-28 16:00:00 NR 15.20 140.80 1687 1657 __________O___ -1 15.20 140.80 4 8 287
1885 WP MM 18:00:00 NR 15.27 140.55 1657 1627 __________P___ -1 15.27 140.55 4 8 287
1885 WP MM 21:00:00 NR 15.38 140.18 1627 1587 __________P___ -1 15.38 140.18 4 7 287
1885 WP MM 1885-08-29 00:00:00 NR 15.48 139.83 1587 1558 __________P___ -1 15.48 139.83 4 7 286
1885 WP MM 03:00:00 NR 15.57 139.50 1558 1548 __________P___ -1 15.57 139.50 4 6 286
1885 WP MM 04:00:00 NR 15.60 139.40 1548 1527 __________O___ -1 15.60 139.40 4 6 285
1885 WP MM 06:00:00 NR 15.65 139.21 1529 1508 __________P___ -1 15.65 139.21 4 5 285
1885 WP MM 09:00:00 NR 15.72 138.95 1508 1480 __________P___ -1 15.72 138.95 4 5 286
1885 WP MM 12:00:00 NR 15.79 138.71 1480 1459 __________P___ -1 15.79 138.71 4 5 288
1885 WP MM 15:00:00 NR 15.87 138.48 1462 1452 __________P___ -1 15.87 138.48 4 5 290
1885 WP MM 16:00:00 NR 15.90 138.40 1452 1434 __________O___ -1 15.90 138.40 4 5 294
1885 WP MM 18:00:00 NR 15.97 138.23 1434 1416 __________P___ -1 15.97 138.23 4 5 296
1885 WP MM 21:00:00 NR 16.09 137.98 1416 1389 __________P___ -1 16.09 137.98 4 5 298
1885 WP MM 1885-08-30 00:00:00 NR 16.22 137.73 1389 1372 __________P___ -1 16.22 137.73 4 5 299
1885 WP MM 03:00:00 NR 16.36 137.48 1375 1365 __________P___ -1 16.36 137.48 4 6 299
1885 WP MM 04:00:00 NR 16.40 137.40 1365 1349 __________O___ -1 16.40 137.40 4 6 297
1885 WP MM 06:00:00 NR 16.48 137.23 1349 1333 __________P___ -1 16.48 137.23 4 6 296
1885 WP MM 09:00:00 NR 16.60 136.97 1333 1307 __________P___ -1 16.60 136.97 4 5 297
1885 WP MM 12:00:00 NR 16.73 136.72 1307 1291 __________P___ -1 16.73 136.72 4 5 298
1885 WP MM 15:00:00 NR 16.85 136.48 1295 1285 __________P___ -1 16.85 136.48 4 5 300
1885 WP MM 16:00:00 NR 16.90 136.40 1285 1275 __________O___ -1 16.90 136.40 4 5 302
1885 WP MM 18:00:00 NR 16.99 136.25 1280 1255 __________P___ -1 16.99 136.25 4 5 303
1885 WP MM 21:00:00 NR 17.12 136.04 1255 1246 __________P___ -1 17.12 136.04 4 5 306
1885 WP MM 1885-08-31 00:00:00 NR 17.27 135.85 1246 1241 __________P___ -1 17.27 135.85 4 5 311
1885 WP MM 03:00:00 NR 17.44 135.66 1241 1237 __________P___ -1 17.44 135.66 4 5 314
1885 WP MM 04:00:00 NR 17.50 135.60 1237 1232 __________O___ -1 17.50 135.60 4 5 318
1885 WP MM 06:00:00 NR 17.64 135.48 1232 1224 __________P___ -1 17.64 135.48 4 6 321
1885 WP MM 09:00:00 NR 17.86 135.29 1230 1221 __________P___ -1 17.86 135.29 4 6 323
1885 WP MM 12:00:00 NR 18.09 135.12 1223 1220 __________P___ -1 18.09 135.12 4 6 325
1885 WP MM 15:00:00 NR 18.32 134.95 1226 1217 __________P___ -1 18.32 134.95 4 6 326
1885 WP MM 16:00:00 NR 18.40 134.90 1223 1221 __________O___ -1 18.40 134.90 4 5 326
1885 WP MM 18:00:00 NR 18.53 134.80 1221 1218 __________P___ -1 18.53 134.80 4 5 325
1885 WP MM 21:00:00 NR 18.73 134.66 1223 1213 __________P___ -1 18.73 134.66 4 5 325
1885 WP MM 1885-09-01 00:00:00 NR 18.92 134.52 1213 1209 __________P___ -1 18.92 134.52 4 5 325
1885 WP MM 03:00:00 NR 19.13 134.36 1214 1205 __________P___ -1 19.13 134.36 4 5 323
1885 WP MM 04:00:00 NR 19.20 134.30 1210 1206 __________O___ -1 19.20 134.30 4 6 320
1885 WP MM 06:00:00 NR 19.35 134.17 1211 1195 __________P___ -1 19.35 134.17 4 6 319
1885 WP MM 09:00:00 NR 19.59 133.95 1195 1189 __________P___ -1 19.59 133.95 4 7 319
1885 WP MM 12:00:00 NR 19.84 133.72 1189 1184 __________P___ -1 19.84 133.72 4 7 320
1885 WP MM 15:00:00 NR 20.11 133.48 1190 1181 __________P___ -1 20.11 133.48 4 7 321
1885 WP MM 16:00:00 NR 20.20 133.40 1181 1164 __________O___ -1 20.20 133.40 4 7 323
1885 WP MM 18:00:00 NR 20.39 133.25 1164 1150 __________P___ -1 20.39 133.25 4 7 324
1885 WP MM 21:00:00 NR 20.68 133.02 1150 1134 __________P___ -1 20.68 133.02 4 7 325
1885 WP MM 1885-09-02 00:00:00 NR 20.99 132.80 1136 1099 __________P___ -1 20.99 132.80 4 7 326
1885 WP MM 03:00:00 NR 21.30 132.57 1099 1087 __________P___ -1 21.30 132.57 4 7 326
1885 WP MM 04:00:00 NR 21.40 132.50 1087 1061 __________O___ -1 21.40 132.50 4 7 324
1885 WP MM 06:00:00 NR 21.59 132.35 1061 1025 __________P___ -1 21.59 132.35 4 7 323
1885 WP MM 09:00:00 NR 21.87 132.12 1025 990 __________P___ -1 21.87 132.12 4 7 324
1885 WP MM 12:00:00 NR 22.17 131.89 990 954 __________P___ -1 22.17 131.89 4 7 326
1885 WP MM 15:00:00 NR 22.49 131.67 954 942 __________P___ -1 22.49 131.67 4 8 328
1885 WP MM 16:00:00 NR 22.60 131.60 942 908 __________O___ -1 22.60 131.60 4 8 332
1885 WP MM 18:00:00 NR 22.86 131.46 908 861 __________P___ -1 22.86 131.46 4 9 334
1885 WP MM 21:00:00 NR 23.27 131.25 861 815 __________P___ -1 23.27 131.25 4 9 336
1885 WP MM 1885-09-03 00:00:00 NR 23.69 131.05 815 770 __________P___ -1 23.69 131.05 4 9 336
1885 WP MM 03:00:00 NR 24.08 130.86 770 759 __________P___ -1 24.08 130.86 4 8 336
1885 WP MM 04:00:00 NR 24.20 130.80 759 736 __________O___ -1 24.20 130.80 4 7 334
1885 WP MM 06:00:00 NR 24.40 130.69 736 703 __________P___ -1 24.40 130.69 4 6 333
1885 WP MM 09:00:00 NR 24.66 130.54 703 681 __________P___ -1 24.66 130.54 4 6 332
1885 WP MM 12:00:00 NR 24.89 130.40 681 659 __________P___ -1 24.89 130.40 4 5 330
1885 WP MM 15:00:00 NR 25.12 130.25 659 649 __________P___ -1 25.12 130.25 4 5 330
1885 WP MM 16:00:00 NR 25.20 130.20 649 627 __________O___ -1 25.20 130.20 4 6 328
1885 WP MM 18:00:00 NR 25.37 130.08 627 606 __________P___ -1 25.37 130.08 4 6 328
1885 WP MM 21:00:00 NR 25.63 129.90 607 576 __________P___ -1 25.63 129.90 4 6 329
1885 WP MM 1885-09-04 00:00:00 NR 25.90 129.72 577 546 __________P___ -1 25.90 129.72 4 7 331
1885 WP MM 03:00:00 NR 26.20 129.55 546 537 __________P___ -1 26.20 129.55 4 7 333
1885 WP MM 04:00:00 NR 26.30 129.50 537 518 __________O___ -1 26.30 129.50 4 7 337
1885 WP MM 06:00:00 NR 26.51 129.40 518 477 __________P___ -1 26.51 129.40 4 7 340
1885 WP MM 09:00:00 NR 26.86 129.27 477 448 __________P___ -1 26.86 129.27 4 7 342
1885 WP MM 12:00:00 NR 27.21 129.15 451 413 __________P___ -1 27.21 129.15 4 8 344
1885 WP MM 15:00:00 NR 27.58 129.04 413 403 __________P___ -1 27.58 129.04 4 8 345
1885 WP MM 16:00:00 NR 27.70 129.00 403 __________O___ -1 27.70 129.00 4 8 339